sensor_id;sensor_type;location;lat;lon;timestamp;P1;durP1;ratioP1;P2;durP2;ratioP2
6077;SDS011;3067;49.470;10.394;2023-03-21T00:00:03;6.00;;;3.60;;
6077;SDS011;3067;49.470;10.394;2023-03-21T00:02:31;3.10;;;2.80;;
6077;SDS011;3067;49.470;10.394;2023-03-21T00:04:58;3.77;;;3.33;;
6077;SDS011;3067;49.470;10.394;2023-03-21T00:07:26;4.30;;;3.53;;
6077;SDS011;3067;49.470;10.394;2023-03-21T00:09:53;9.13;;;3.90;;
6077;SDS011;3067;49.470;10.394;2023-03-21T00:12:20;3.37;;;3.17;;
6077;SDS011;3067;49.470;10.394;2023-03-21T00:14:48;5.20;;;3.53;;
6077;SDS011;3067;49.470;10.394;2023-03-21T00:17:19;9.30;;;3.20;;
6077;SDS011;3067;49.470;10.394;2023-03-21T00:19:47;4.53;;;3.80;;
6077;SDS011;3067;49.470;10.394;2023-03-21T00:22:14;3.47;;;3.27;;
6077;SDS011;3067;49.470;10.394;2023-03-21T00:24:42;3.10;;;2.90;;
6077;SDS011;3067;49.470;10.394;2023-03-21T00:27:09;8.07;;;3.60;;
6077;SDS011;3067;49.470;10.394;2023-03-21T00:29:38;3.10;;;2.90;;
6077;SDS011;3067;49.470;10.394;2023-03-21T00:32:05;4.20;;;3.20;;
6077;SDS011;3067;49.470;10.394;2023-03-21T00:34:34;3.80;;;3.20;;
6077;SDS011;3067;49.470;10.394;2023-03-21T00:37:02;4.30;;;3.43;;
6077;SDS011;3067;49.470;10.394;2023-03-21T00:39:31;4.73;;;4.30;;
6077;SDS011;3067;49.470;10.394;2023-03-21T00:41:58;3.97;;;3.67;;
6077;SDS011;3067;49.470;10.394;2023-03-21T00:44:26;4.53;;;3.87;;
6077;SDS011;3067;49.470;10.394;2023-03-21T00:46:53;5.07;;;4.43;;
6077;SDS011;3067;49.470;10.394;2023-03-21T00:49:20;4.17;;;3.80;;
6077;SDS011;3067;49.470;10.394;2023-03-21T00:51:49;5.70;;;3.97;;
6077;SDS011;3067;49.470;10.394;2023-03-21T00:54:17;6.53;;;3.80;;
6077;SDS011;3067;49.470;10.394;2023-03-21T00:56:45;8.47;;;4.20;;
6077;SDS011;3067;49.470;10.394;2023-03-21T00:59:12;4.90;;;3.50;;
6077;SDS011;3067;49.470;10.394;2023-03-21T01:01:40;4.87;;;3.97;;
6077;SDS011;3067;49.470;10.394;2023-03-21T01:04:08;4.00;;;3.60;;
6077;SDS011;3067;49.470;10.394;2023-03-21T01:06:39;4.70;;;4.30;;
6077;SDS011;3067;49.470;10.394;2023-03-21T01:09:08;4.93;;;4.30;;
6077;SDS011;3067;49.470;10.394;2023-03-21T01:11:37;4.07;;;3.53;;
6077;SDS011;3067;49.470;10.394;2023-03-21T01:14:06;6.93;;;3.83;;
6077;SDS011;3067;49.470;10.394;2023-03-21T01:16:33;5.40;;;3.50;;
6077;SDS011;3067;49.470;10.394;2023-03-21T01:19:01;7.87;;;3.47;;
6077;SDS011;3067;49.470;10.394;2023-03-21T01:21:29;6.10;;;3.80;;
6077;SDS011;3067;49.470;10.394;2023-03-21T01:23:56;7.23;;;3.50;;
6077;SDS011;3067;49.470;10.394;2023-03-21T01:26:25;3.47;;;3.17;;
6077;SDS011;3067;49.470;10.394;2023-03-21T01:28:53;6.37;;;3.57;;
6077;SDS011;3067;49.470;10.394;2023-03-21T01:31:20;2.87;;;2.67;;
6077;SDS011;3067;49.470;10.394;2023-03-21T01:33:47;3.47;;;2.93;;
6077;SDS011;3067;49.470;10.394;2023-03-21T01:36:16;2.97;;;2.87;;
6077;SDS011;3067;49.470;10.394;2023-03-21T01:38:43;3.07;;;2.83;;
6077;SDS011;3067;49.470;10.394;2023-03-21T01:41:14;4.00;;;3.27;;
6077;SDS011;3067;49.470;10.394;2023-03-21T01:43:45;3.13;;;2.90;;
6077;SDS011;3067;49.470;10.394;2023-03-21T01:46:31;3.90;;;2.73;;
6077;SDS011;3067;49.470;10.394;2023-03-21T01:49:00;3.30;;;3.00;;
6077;SDS011;3067;49.470;10.394;2023-03-21T01:51:28;4.30;;;2.97;;
6077;SDS011;3067;49.470;10.394;2023-03-21T01:53:56;3.27;;;2.97;;
6077;SDS011;3067;49.470;10.394;2023-03-21T01:56:25;3.03;;;2.83;;
6077;SDS011;3067;49.470;10.394;2023-03-21T01:58:57;5.00;;;2.97;;
6077;SDS011;3067;49.470;10.394;2023-03-21T02:01:27;3.40;;;3.20;;
6077;SDS011;3067;49.470;10.394;2023-03-21T02:03:56;4.30;;;3.00;;
6077;SDS011;3067;49.470;10.394;2023-03-21T02:06:31;3.93;;;3.00;;
6077;SDS011;3067;49.470;10.394;2023-03-21T02:09:03;3.00;;;2.90;;
6077;SDS011;3067;49.470;10.394;2023-03-21T02:11:33;3.70;;;3.40;;
6077;SDS011;3067;49.470;10.394;2023-03-21T02:14:02;3.80;;;3.30;;
6077;SDS011;3067;49.470;10.394;2023-03-21T02:16:36;3.40;;;3.20;;
6077;SDS011;3067;49.470;10.394;2023-03-21T02:19:10;3.43;;;3.13;;
6077;SDS011;3067;49.470;10.394;2023-03-21T02:27:18;7.00;;;3.50;;
6077;SDS011;3067;49.470;10.394;2023-03-21T02:32:43;4.47;;;3.10;;
6077;SDS011;3067;49.470;10.394;2023-03-21T02:35:22;8.30;;;3.60;;
6077;SDS011;3067;49.470;10.394;2023-03-21T02:37:52;4.17;;;3.60;;
6077;SDS011;3067;49.470;10.394;2023-03-21T02:40:22;4.00;;;3.70;;
6077;SDS011;3067;49.470;10.394;2023-03-21T02:42:53;3.83;;;3.20;;
6077;SDS011;3067;49.470;10.394;2023-03-21T02:45:22;4.97;;;3.83;;
6077;SDS011;3067;49.470;10.394;2023-03-21T02:47:52;4.07;;;3.63;;
6077;SDS011;3067;49.470;10.394;2023-03-21T02:50:22;3.77;;;3.47;;
6077;SDS011;3067;49.470;10.394;2023-03-21T02:52:55;3.63;;;3.43;;
6077;SDS011;3067;49.470;10.394;2023-03-21T02:55:23;4.20;;;3.80;;
6077;SDS011;3067;49.470;10.394;2023-03-21T02:57:51;4.77;;;3.80;;
6077;SDS011;3067;49.470;10.394;2023-03-21T03:00:20;3.67;;;3.40;;
6077;SDS011;3067;49.470;10.394;2023-03-21T03:02:48;6.80;;;4.27;;
6077;SDS011;3067;49.470;10.394;2023-03-21T03:05:16;3.90;;;3.57;;
6077;SDS011;3067;49.470;10.394;2023-03-21T03:07:48;7.33;;;4.13;;
6077;SDS011;3067;49.470;10.394;2023-03-21T03:10:23;7.43;;;3.53;;
6077;SDS011;3067;49.470;10.394;2023-03-21T03:12:56;3.47;;;3.27;;
6077;SDS011;3067;49.470;10.394;2023-03-21T03:15:31;5.20;;;3.73;;
6077;SDS011;3067;49.470;10.394;2023-03-21T03:18:05;4.40;;;4.00;;
6077;SDS011;3067;49.470;10.394;2023-03-21T03:20:41;3.47;;;3.27;;
6077;SDS011;3067;49.470;10.394;2023-03-21T03:23:13;5.00;;;3.97;;
6077;SDS011;3067;49.470;10.394;2023-03-21T03:25:45;4.97;;;3.70;;
6077;SDS011;3067;49.470;10.394;2023-03-21T03:28:15;3.60;;;3.40;;
6077;SDS011;3067;49.470;10.394;2023-03-21T03:30:44;5.53;;;3.97;;
6077;SDS011;3067;49.470;10.394;2023-03-21T03:33:12;4.37;;;3.83;;
6077;SDS011;3067;49.470;10.394;2023-03-21T03:35:41;10.87;;;3.80;;
6077;SDS011;3067;49.470;10.394;2023-03-21T03:38:09;6.07;;;3.90;;
6077;SDS011;3067;49.470;10.394;2023-03-21T03:40:38;3.47;;;3.27;;
6077;SDS011;3067;49.470;10.394;2023-03-21T03:43:09;4.10;;;3.70;;
6077;SDS011;3067;49.470;10.394;2023-03-21T03:45:39;5.73;;;3.60;;
6077;SDS011;3067;49.470;10.394;2023-03-21T03:48:12;4.90;;;4.23;;
6077;SDS011;3067;49.470;10.394;2023-03-21T03:50:42;4.30;;;3.90;;
6077;SDS011;3067;49.470;10.394;2023-03-21T03:53:14;5.27;;;4.27;;
6077;SDS011;3067;49.470;10.394;2023-03-21T03:55:43;5.33;;;4.60;;
6077;SDS011;3067;49.470;10.394;2023-03-21T03:58:12;3.93;;;3.67;;
6077;SDS011;3067;49.470;10.394;2023-03-21T04:00:43;4.10;;;3.80;;
6077;SDS011;3067;49.470;10.394;2023-03-21T04:03:10;5.27;;;4.00;;
6077;SDS011;3067;49.470;10.394;2023-03-21T04:05:38;17.30;;;4.30;;
6077;SDS011;3067;49.470;10.394;2023-03-21T04:08:06;6.87;;;4.10;;
6077;SDS011;3067;49.470;10.394;2023-03-21T04:10:33;8.30;;;4.17;;
6077;SDS011;3067;49.470;10.394;2023-03-21T04:13:01;4.40;;;4.10;;
6077;SDS011;3067;49.470;10.394;2023-03-21T04:15:29;9.60;;;3.70;;
6077;SDS011;3067;49.470;10.394;2023-03-21T04:17:57;8.70;;;4.20;;
6077;SDS011;3067;49.470;10.394;2023-03-21T04:20:24;6.63;;;3.73;;
6077;SDS011;3067;49.470;10.394;2023-03-21T04:22:51;5.93;;;4.03;;
6077;SDS011;3067;49.470;10.394;2023-03-21T04:25:20;4.13;;;3.73;;
6077;SDS011;3067;49.470;10.394;2023-03-21T04:27:47;7.23;;;3.90;;
6077;SDS011;3067;49.470;10.394;2023-03-21T04:30:15;5.50;;;3.80;;
6077;SDS011;3067;49.470;10.394;2023-03-21T04:32:45;5.23;;;4.20;;
6077;SDS011;3067;49.470;10.394;2023-03-21T04:35:18;5.30;;;4.80;;
6077;SDS011;3067;49.470;10.394;2023-03-21T04:37:45;5.20;;;4.10;;
6077;SDS011;3067;49.470;10.394;2023-03-21T04:40:13;5.97;;;3.87;;
6077;SDS011;3067;49.470;10.394;2023-03-21T04:42:43;7.53;;;4.70;;
6077;SDS011;3067;49.470;10.394;2023-03-21T04:45:10;7.27;;;4.10;;
6077;SDS011;3067;49.470;10.394;2023-03-21T04:47:38;10.07;;;4.10;;
6077;SDS011;3067;49.470;10.394;2023-03-21T04:50:08;11.37;;;6.73;;
6077;SDS011;3067;49.470;10.394;2023-03-21T04:52:35;10.83;;;5.20;;
6077;SDS011;3067;49.470;10.394;2023-03-21T04:55:03;5.73;;;5.10;;
6077;SDS011;3067;49.470;10.394;2023-03-21T04:57:34;7.30;;;5.40;;
6077;SDS011;3067;49.470;10.394;2023-03-21T05:00:02;8.30;;;4.73;;
6077;SDS011;3067;49.470;10.394;2023-03-21T05:02:31;6.47;;;4.80;;
6077;SDS011;3067;49.470;10.394;2023-03-21T05:04:58;7.83;;;4.80;;
6077;SDS011;3067;49.470;10.394;2023-03-21T05:07:27;5.10;;;4.17;;
6077;SDS011;3067;49.470;10.394;2023-03-21T05:09:56;5.07;;;4.57;;
6077;SDS011;3067;49.470;10.394;2023-03-21T05:12:24;4.60;;;4.20;;
6077;SDS011;3067;49.470;10.394;2023-03-21T05:14:51;6.17;;;4.43;;
6077;SDS011;3067;49.470;10.394;2023-03-21T05:17:19;7.07;;;5.00;;
6077;SDS011;3067;49.470;10.394;2023-03-21T05:19:52;5.07;;;4.60;;
6077;SDS011;3067;49.470;10.394;2023-03-21T05:22:21;7.73;;;5.37;;
6077;SDS011;3067;49.470;10.394;2023-03-21T05:24:50;7.80;;;5.50;;
6077;SDS011;3067;49.470;10.394;2023-03-21T05:27:19;6.77;;;5.00;;
6077;SDS011;3067;49.470;10.394;2023-03-21T05:29:59;9.87;;;4.70;;
6077;SDS011;3067;49.470;10.394;2023-03-21T05:32:26;16.73;;;5.13;;
6077;SDS011;3067;49.470;10.394;2023-03-21T05:34:54;11.80;;;4.80;;
6077;SDS011;3067;49.470;10.394;2023-03-21T05:37:21;12.43;;;5.30;;
6077;SDS011;3067;49.470;10.394;2023-03-21T05:39:50;7.03;;;4.90;;
6077;SDS011;3067;49.470;10.394;2023-03-21T05:42:17;9.77;;;5.10;;
6077;SDS011;3067;49.470;10.394;2023-03-21T05:44:45;6.17;;;4.90;;
6077;SDS011;3067;49.470;10.394;2023-03-21T05:47:13;11.80;;;4.87;;
6077;SDS011;3067;49.470;10.394;2023-03-21T05:49:41;5.23;;;4.40;;
6077;SDS011;3067;49.470;10.394;2023-03-21T05:52:09;8.40;;;4.77;;
6077;SDS011;3067;49.470;10.394;2023-03-21T05:54:36;7.20;;;4.90;;
6077;SDS011;3067;49.470;10.394;2023-03-21T05:57:05;10.33;;;5.40;;
6077;SDS011;3067;49.470;10.394;2023-03-21T05:59:32;7.97;;;5.10;;
6077;SDS011;3067;49.470;10.394;2023-03-21T06:01:59;9.47;;;5.40;;
6077;SDS011;3067;49.470;10.394;2023-03-21T06:04:27;5.97;;;4.93;;
6077;SDS011;3067;49.470;10.394;2023-03-21T06:06:54;6.20;;;4.73;;
6077;SDS011;3067;49.470;10.394;2023-03-21T06:09:22;8.30;;;4.90;;
6077;SDS011;3067;49.470;10.394;2023-03-21T06:11:50;6.80;;;4.87;;
6077;SDS011;3067;49.470;10.394;2023-03-21T06:14:19;9.97;;;5.00;;
6077;SDS011;3067;49.470;10.394;2023-03-21T06:16:47;7.60;;;5.37;;
6077;SDS011;3067;49.470;10.394;2023-03-21T06:19:14;5.40;;;4.90;;
6077;SDS011;3067;49.470;10.394;2023-03-21T06:21:42;5.57;;;5.07;;
6077;SDS011;3067;49.470;10.394;2023-03-21T06:24:09;8.40;;;5.30;;
6077;SDS011;3067;49.470;10.394;2023-03-21T06:26:37;12.63;;;5.87;;
6077;SDS011;3067;49.470;10.394;2023-03-21T06:29:06;5.23;;;4.70;;
6077;SDS011;3067;49.470;10.394;2023-03-21T06:31:35;14.40;;;6.83;;
6077;SDS011;3067;49.470;10.394;2023-03-21T06:34:02;27.03;;;12.23;;
6077;SDS011;3067;49.470;10.394;2023-03-21T06:36:29;24.00;;;11.20;;
6077;SDS011;3067;49.470;10.394;2023-03-21T06:38:57;16.03;;;8.43;;
6077;SDS011;3067;49.470;10.394;2023-03-21T06:41:24;11.07;;;6.50;;
6077;SDS011;3067;49.470;10.394;2023-03-21T06:43:51;10.70;;;5.70;;
6077;SDS011;3067;49.470;10.394;2023-03-21T06:46:19;6.37;;;4.93;;
6077;SDS011;3067;49.470;10.394;2023-03-21T06:48:48;8.03;;;5.90;;
6077;SDS011;3067;49.470;10.394;2023-03-21T06:51:15;11.07;;;5.30;;
6077;SDS011;3067;49.470;10.394;2023-03-21T06:53:42;5.73;;;5.10;;
6077;SDS011;3067;49.470;10.394;2023-03-21T06:56:11;6.73;;;4.50;;
6077;SDS011;3067;49.470;10.394;2023-03-21T06:58:38;7.40;;;4.87;;
6077;SDS011;3067;49.470;10.394;2023-03-21T07:01:06;5.40;;;4.30;;
6077;SDS011;3067;49.470;10.394;2023-03-21T07:03:33;7.30;;;4.73;;
6077;SDS011;3067;49.470;10.394;2023-03-21T07:06:06;6.07;;;4.67;;
6077;SDS011;3067;49.470;10.394;2023-03-21T07:08:36;8.50;;;4.50;;
6077;SDS011;3067;49.470;10.394;2023-03-21T07:11:04;5.67;;;4.13;;
6077;SDS011;3067;49.470;10.394;2023-03-21T07:13:31;10.10;;;4.10;;
6077;SDS011;3067;49.470;10.394;2023-03-21T07:15:58;5.53;;;4.30;;
6077;SDS011;3067;49.470;10.394;2023-03-21T07:18:26;7.20;;;4.50;;
6077;SDS011;3067;49.470;10.394;2023-03-21T07:20:55;8.70;;;4.23;;
6077;SDS011;3067;49.470;10.394;2023-03-21T07:23:24;4.47;;;4.10;;
6077;SDS011;3067;49.470;10.394;2023-03-21T07:25:51;4.80;;;4.40;;
6077;SDS011;3067;49.470;10.394;2023-03-21T07:28:19;5.77;;;4.43;;
6077;SDS011;3067;49.470;10.394;2023-03-21T07:30:50;5.53;;;4.50;;
6077;SDS011;3067;49.470;10.394;2023-03-21T07:33:18;5.23;;;4.73;;
6077;SDS011;3067;49.470;10.394;2023-03-21T07:35:47;5.00;;;4.50;;
6077;SDS011;3067;49.470;10.394;2023-03-21T07:38:14;7.13;;;4.90;;
6077;SDS011;3067;49.470;10.394;2023-03-21T07:40:43;8.13;;;5.47;;
6077;SDS011;3067;49.470;10.394;2023-03-21T07:43:10;5.03;;;4.57;;
6077;SDS011;3067;49.470;10.394;2023-03-21T07:45:38;11.80;;;4.60;;
6077;SDS011;3067;49.470;10.394;2023-03-21T07:48:06;5.43;;;4.93;;
6077;SDS011;3067;49.470;10.394;2023-03-21T07:50:34;6.00;;;4.00;;
6077;SDS011;3067;49.470;10.394;2023-03-21T07:53:01;7.27;;;4.73;;
6077;SDS011;3067;49.470;10.394;2023-03-21T07:55:29;7.33;;;4.53;;
6077;SDS011;3067;49.470;10.394;2023-03-21T07:58:00;6.43;;;5.13;;
6077;SDS011;3067;49.470;10.394;2023-03-21T08:00:27;8.03;;;4.73;;
6077;SDS011;3067;49.470;10.394;2023-03-21T08:02:55;6.10;;;5.00;;
6077;SDS011;3067;49.470;10.394;2023-03-21T08:05:24;12.90;;;5.17;;
6077;SDS011;3067;49.470;10.394;2023-03-21T08:07:52;6.30;;;4.93;;
6077;SDS011;3067;49.470;10.394;2023-03-21T08:10:19;5.33;;;4.87;;
6077;SDS011;3067;49.470;10.394;2023-03-21T08:12:47;5.90;;;4.67;;
6077;SDS011;3067;49.470;10.394;2023-03-21T08:15:15;5.77;;;5.17;;
6077;SDS011;3067;49.470;10.394;2023-03-21T08:17:43;8.53;;;4.53;;
6077;SDS011;3067;49.470;10.394;2023-03-21T08:20:11;10.23;;;4.50;;
6077;SDS011;3067;49.470;10.394;2023-03-21T08:22:39;6.20;;;4.70;;
6077;SDS011;3067;49.470;10.394;2023-03-21T08:25:08;6.50;;;4.40;;
6077;SDS011;3067;49.470;10.394;2023-03-21T08:27:37;6.67;;;4.70;;
6077;SDS011;3067;49.470;10.394;2023-03-21T08:30:05;5.07;;;4.63;;
6077;SDS011;3067;49.470;10.394;2023-03-21T08:32:34;6.53;;;4.70;;
6077;SDS011;3067;49.470;10.394;2023-03-21T08:35:03;6.93;;;5.13;;
6077;SDS011;3067;49.470;10.394;2023-03-21T08:37:32;9.53;;;4.53;;
6077;SDS011;3067;49.470;10.394;2023-03-21T08:40:00;5.83;;;3.90;;
6077;SDS011;3067;49.470;10.394;2023-03-21T08:42:31;7.87;;;3.80;;
6077;SDS011;3067;49.470;10.394;2023-03-21T08:44:58;5.53;;;3.30;;
6077;SDS011;3067;49.470;10.394;2023-03-21T08:47:25;8.70;;;3.50;;
6077;SDS011;3067;49.470;10.394;2023-03-21T08:49:54;8.50;;;2.90;;
6077;SDS011;3067;49.470;10.394;2023-03-21T08:52:21;15.83;;;3.60;;
6077;SDS011;3067;49.470;10.394;2023-03-21T08:54:48;5.23;;;2.70;;
6077;SDS011;3067;49.470;10.394;2023-03-21T08:57:16;4.37;;;3.20;;
6077;SDS011;3067;49.470;10.394;2023-03-21T08:59:43;5.90;;;3.50;;
6077;SDS011;3067;49.470;10.394;2023-03-21T09:02:12;5.40;;;3.40;;
6077;SDS011;3067;49.470;10.394;2023-03-21T09:04:40;4.93;;;3.30;;
6077;SDS011;3067;49.470;10.394;2023-03-21T09:07:09;4.03;;;3.37;;
6077;SDS011;3067;49.470;10.394;2023-03-21T09:09:38;12.63;;;4.60;;
6077;SDS011;3067;49.470;10.394;2023-03-21T09:12:06;7.57;;;3.33;;
6077;SDS011;3067;49.470;10.394;2023-03-21T09:14:33;4.57;;;3.80;;
6077;SDS011;3067;49.470;10.394;2023-03-21T09:17:01;3.90;;;3.60;;
6077;SDS011;3067;49.470;10.394;2023-03-21T09:19:28;3.63;;;3.33;;
6077;SDS011;3067;49.470;10.394;2023-03-21T09:21:56;4.13;;;3.60;;
6077;SDS011;3067;49.470;10.394;2023-03-21T09:24:25;7.90;;;4.23;;
6077;SDS011;3067;49.470;10.394;2023-03-21T09:26:52;7.53;;;3.77;;
6077;SDS011;3067;49.470;10.394;2023-03-21T09:29:20;12.87;;;3.83;;
6077;SDS011;3067;49.470;10.394;2023-03-21T09:31:47;9.03;;;3.80;;
6077;SDS011;3067;49.470;10.394;2023-03-21T09:34:17;3.77;;;3.43;;
6077;SDS011;3067;49.470;10.394;2023-03-21T09:36:45;3.90;;;3.60;;
6077;SDS011;3067;49.470;10.394;2023-03-21T09:39:20;6.90;;;4.00;;
6077;SDS011;3067;49.470;10.394;2023-03-21T09:41:53;4.10;;;3.80;;
6077;SDS011;3067;49.470;10.394;2023-03-21T09:44:26;4.83;;;4.07;;
6077;SDS011;3067;49.470;10.394;2023-03-21T09:46:59;3.83;;;3.53;;
6077;SDS011;3067;49.470;10.394;2023-03-21T09:49:29;4.93;;;4.10;;
6077;SDS011;3067;49.470;10.394;2023-03-21T09:51:58;5.90;;;4.23;;
6077;SDS011;3067;49.470;10.394;2023-03-21T09:54:30;6.10;;;4.07;;
6077;SDS011;3067;49.470;10.394;2023-03-21T09:57:03;3.97;;;3.60;;
6077;SDS011;3067;49.470;10.394;2023-03-21T09:59:32;4.40;;;3.57;;
6077;SDS011;3067;49.470;10.394;2023-03-21T10:02:02;5.67;;;4.17;;
6077;SDS011;3067;49.470;10.394;2023-03-21T10:04:30;3.80;;;3.50;;
6077;SDS011;3067;49.470;10.394;2023-03-21T10:06:58;5.70;;;3.50;;
6077;SDS011;3067;49.470;10.394;2023-03-21T10:09:27;4.23;;;3.83;;
6077;SDS011;3067;49.470;10.394;2023-03-21T10:11:57;5.00;;;4.50;;
6077;SDS011;3067;49.470;10.394;2023-03-21T10:14:29;5.77;;;4.23;;
6077;SDS011;3067;49.470;10.394;2023-03-21T10:16:58;5.00;;;3.50;;
6077;SDS011;3067;49.470;10.394;2023-03-21T10:19:26;5.30;;;4.20;;
6077;SDS011;3067;49.470;10.394;2023-03-21T10:21:55;4.23;;;3.40;;
6077;SDS011;3067;49.470;10.394;2023-03-21T10:24:23;4.40;;;3.80;;
6077;SDS011;3067;49.470;10.394;2023-03-21T10:26:51;3.70;;;3.40;;
6077;SDS011;3067;49.470;10.394;2023-03-21T10:29:20;3.70;;;3.40;;
6077;SDS011;3067;49.470;10.394;2023-03-21T10:31:49;5.03;;;3.77;;
6077;SDS011;3067;49.470;10.394;2023-03-21T10:34:18;3.50;;;3.30;;
6077;SDS011;3067;49.470;10.394;2023-03-21T10:36:46;3.50;;;3.20;;
6077;SDS011;3067;49.470;10.394;2023-03-21T10:39:17;7.20;;;3.50;;
6077;SDS011;3067;49.470;10.394;2023-03-21T10:41:47;4.27;;;3.97;;
6077;SDS011;3067;49.470;10.394;2023-03-21T10:44:16;3.83;;;3.03;;
6077;SDS011;3067;49.470;10.394;2023-03-21T10:46:50;4.37;;;3.20;;
6077;SDS011;3067;49.470;10.394;2023-03-21T10:49:17;6.40;;;3.50;;
6077;SDS011;3067;49.470;10.394;2023-03-21T10:51:45;11.23;;;3.43;;
6077;SDS011;3067;49.470;10.394;2023-03-21T10:54:15;4.00;;;3.50;;
6077;SDS011;3067;49.470;10.394;2023-03-21T10:56:44;3.80;;;3.50;;
6077;SDS011;3067;49.470;10.394;2023-03-21T10:59:16;3.73;;;3.43;;
6077;SDS011;3067;49.470;10.394;2023-03-21T11:01:45;5.10;;;3.93;;
6077;SDS011;3067;49.470;10.394;2023-03-21T11:04:16;4.27;;;3.87;;
6077;SDS011;3067;49.470;10.394;2023-03-21T11:06:44;4.47;;;3.40;;
6077;SDS011;3067;49.470;10.394;2023-03-21T11:09:16;3.70;;;3.30;;
6077;SDS011;3067;49.470;10.394;2023-03-21T11:11:49;3.90;;;3.33;;
6077;SDS011;3067;49.470;10.394;2023-03-21T11:14:24;4.60;;;3.43;;
6077;SDS011;3067;49.470;10.394;2023-03-21T11:16:52;3.70;;;3.50;;
6077;SDS011;3067;49.470;10.394;2023-03-21T11:19:25;6.77;;;4.10;;
6077;SDS011;3067;49.470;10.394;2023-03-21T11:21:55;4.40;;;4.00;;
6077;SDS011;3067;49.470;10.394;2023-03-21T11:24:23;4.90;;;4.43;;
6077;SDS011;3067;49.470;10.394;2023-03-21T11:26:54;4.37;;;3.90;;
6077;SDS011;3067;49.470;10.394;2023-03-21T11:29:26;3.70;;;3.40;;
6077;SDS011;3067;49.470;10.394;2023-03-21T11:31:58;5.63;;;3.73;;
6077;SDS011;3067;49.470;10.394;2023-03-21T11:34:29;3.83;;;3.53;;
6077;SDS011;3067;49.470;10.394;2023-03-21T11:36:58;3.80;;;3.50;;
6077;SDS011;3067;49.470;10.394;2023-03-21T11:39:28;9.47;;;4.10;;
6077;SDS011;3067;49.470;10.394;2023-03-21T11:41:56;10.43;;;3.97;;
6077;SDS011;3067;49.470;10.394;2023-03-21T11:44:25;3.57;;;3.33;;
6077;SDS011;3067;49.470;10.394;2023-03-21T11:46:53;5.47;;;3.23;;
6077;SDS011;3067;49.470;10.394;2023-03-21T11:49:20;8.53;;;4.10;;
6077;SDS011;3067;49.470;10.394;2023-03-21T11:51:50;5.20;;;3.33;;
6077;SDS011;3067;49.470;10.394;2023-03-21T11:54:20;3.67;;;3.40;;
6077;SDS011;3067;49.470;10.394;2023-03-21T11:56:51;5.17;;;3.97;;
6077;SDS011;3067;49.470;10.394;2023-03-21T11:59:23;6.87;;;3.70;;
6077;SDS011;3067;49.470;10.394;2023-03-21T12:02:02;4.13;;;3.70;;
6077;SDS011;3067;49.470;10.394;2023-03-21T12:04:39;3.03;;;2.83;;
6077;SDS011;3067;49.470;10.394;2023-03-21T12:07:14;4.13;;;3.80;;
6077;SDS011;3067;49.470;10.394;2023-03-21T12:09:43;4.43;;;3.30;;
6077;SDS011;3067;49.470;10.394;2023-03-21T12:12:18;3.17;;;2.87;;
6077;SDS011;3067;49.470;10.394;2023-03-21T12:14:50;4.33;;;2.80;;
6077;SDS011;3067;49.470;10.394;2023-03-21T12:17:23;3.33;;;3.10;;
6077;SDS011;3067;49.470;10.394;2023-03-21T12:19:58;8.30;;;3.13;;
6077;SDS011;3067;49.470;10.394;2023-03-21T12:22:31;4.00;;;3.70;;
6077;SDS011;3067;49.470;10.394;2023-03-21T12:25:04;4.10;;;3.13;;
6077;SDS011;3067;49.470;10.394;2023-03-21T12:27:35;6.23;;;3.53;;
6077;SDS011;3067;49.470;10.394;2023-03-21T12:30:15;3.77;;;3.40;;
6077;SDS011;3067;49.470;10.394;2023-03-21T12:32:50;4.23;;;3.93;;
6077;SDS011;3067;49.470;10.394;2023-03-21T12:35:21;4.60;;;4.20;;
6077;SDS011;3067;49.470;10.394;2023-03-21T12:37:55;5.70;;;5.13;;
6077;SDS011;3067;49.470;10.394;2023-03-21T12:40:27;4.00;;;3.80;;
6077;SDS011;3067;49.470;10.394;2023-03-21T12:42:59;7.50;;;3.30;;
6077;SDS011;3067;49.470;10.394;2023-03-21T12:45:31;2.20;;;2.10;;
6077;SDS011;3067;49.470;10.394;2023-03-21T12:48:02;5.33;;;3.27;;
6077;SDS011;3067;49.470;10.394;2023-03-21T12:50:32;4.50;;;4.20;;
6077;SDS011;3067;49.470;10.394;2023-03-21T12:53:05;5.23;;;3.97;;
6077;SDS011;3067;49.470;10.394;2023-03-21T12:55:35;5.20;;;3.83;;
6077;SDS011;3067;49.470;10.394;2023-03-21T12:58:03;7.33;;;3.80;;
6077;SDS011;3067;49.470;10.394;2023-03-21T13:00:33;4.67;;;4.00;;
6077;SDS011;3067;49.470;10.394;2023-03-21T13:03:02;5.10;;;4.60;;
6077;SDS011;3067;49.470;10.394;2023-03-21T13:05:30;4.80;;;4.30;;
6077;SDS011;3067;49.470;10.394;2023-03-21T13:08:00;4.97;;;4.53;;
6077;SDS011;3067;49.470;10.394;2023-03-21T13:10:32;8.43;;;4.50;;
6077;SDS011;3067;49.470;10.394;2023-03-21T13:13:04;4.20;;;3.93;;
6077;SDS011;3067;49.470;10.394;2023-03-21T13:15:40;5.53;;;3.53;;
6077;SDS011;3067;49.470;10.394;2023-03-21T13:18:14;4.03;;;3.63;;
6077;SDS011;3067;49.470;10.394;2023-03-21T13:20:43;4.47;;;3.90;;
6077;SDS011;3067;49.470;10.394;2023-03-21T13:23:12;4.23;;;3.80;;
6077;SDS011;3067;49.470;10.394;2023-03-21T13:25:45;6.93;;;3.70;;
6077;SDS011;3067;49.470;10.394;2023-03-21T13:28:16;5.87;;;4.43;;
6077;SDS011;3067;49.470;10.394;2023-03-21T13:30:44;6.40;;;4.40;;
6077;SDS011;3067;49.470;10.394;2023-03-21T13:33:13;3.93;;;3.40;;
6077;SDS011;3067;49.470;10.394;2023-03-21T13:35:41;4.27;;;3.50;;
6077;SDS011;3067;49.470;10.394;2023-03-21T13:38:09;6.90;;;4.90;;
6077;SDS011;3067;49.470;10.394;2023-03-21T13:40:39;7.83;;;3.90;;
6077;SDS011;3067;49.470;10.394;2023-03-21T13:45:51;3.87;;;3.57;;
6077;SDS011;3067;49.470;10.394;2023-03-21T13:48:28;3.40;;;3.10;;
6077;SDS011;3067;49.470;10.394;2023-03-21T13:50:59;5.40;;;3.50;;
6077;SDS011;3067;49.470;10.394;2023-03-21T13:53:30;5.60;;;3.37;;
6077;SDS011;3067;49.470;10.394;2023-03-21T13:55:59;3.87;;;3.57;;
6077;SDS011;3067;49.470;10.394;2023-03-21T13:58:33;7.40;;;3.83;;
6077;SDS011;3067;49.470;10.394;2023-03-21T14:03:59;4.17;;;3.77;;
6077;SDS011;3067;49.470;10.394;2023-03-21T14:06:31;4.40;;;4.10;;
6077;SDS011;3067;49.470;10.394;2023-03-21T14:08:59;10.53;;;3.67;;
6077;SDS011;3067;49.470;10.394;2023-03-21T14:11:27;3.83;;;3.50;;
6077;SDS011;3067;49.470;10.394;2023-03-21T14:13:56;7.63;;;3.90;;
6077;SDS011;3067;49.470;10.394;2023-03-21T14:16:24;4.73;;;4.40;;
6077;SDS011;3067;49.470;10.394;2023-03-21T14:18:54;5.47;;;4.10;;
6077;SDS011;3067;49.470;10.394;2023-03-21T14:21:24;4.13;;;3.73;;
6077;SDS011;3067;49.470;10.394;2023-03-21T14:23:55;4.33;;;3.90;;
6077;SDS011;3067;49.470;10.394;2023-03-21T14:26:23;7.10;;;4.07;;
6077;SDS011;3067;49.470;10.394;2023-03-21T14:28:51;6.30;;;5.30;;
6077;SDS011;3067;49.470;10.394;2023-03-21T14:31:18;9.60;;;4.37;;
6077;SDS011;3067;49.470;10.394;2023-03-21T14:33:47;4.00;;;3.67;;
6077;SDS011;3067;49.470;10.394;2023-03-21T14:36:19;4.37;;;4.00;;
6077;SDS011;3067;49.470;10.394;2023-03-21T14:38:55;4.37;;;3.93;;
6077;SDS011;3067;49.470;10.394;2023-03-21T14:41:24;9.20;;;3.80;;
6077;SDS011;3067;49.470;10.394;2023-03-21T14:46:37;4.07;;;3.77;;
6077;SDS011;3067;49.470;10.394;2023-03-21T14:49:09;4.07;;;3.70;;
6077;SDS011;3067;49.470;10.394;2023-03-21T14:51:37;3.60;;;3.30;;
6077;SDS011;3067;49.470;10.394;2023-03-21T14:54:07;3.70;;;3.40;;
6077;SDS011;3067;49.470;10.394;2023-03-21T14:56:35;6.00;;;3.63;;
6077;SDS011;3067;49.470;10.394;2023-03-21T14:59:03;5.80;;;3.60;;
6077;SDS011;3067;49.470;10.394;2023-03-21T15:01:33;3.83;;;3.30;;
6077;SDS011;3067;49.470;10.394;2023-03-21T15:04:04;3.10;;;2.90;;
6077;SDS011;3067;49.470;10.394;2023-03-21T15:06:32;3.80;;;3.37;;
6077;SDS011;3067;49.470;10.394;2023-03-21T15:09:00;4.50;;;3.20;;
6077;SDS011;3067;49.470;10.394;2023-03-21T15:11:30;4.43;;;3.50;;
6077;SDS011;3067;49.470;10.394;2023-03-21T15:13:58;7.67;;;3.20;;
6077;SDS011;3067;49.470;10.394;2023-03-21T15:16:26;7.83;;;3.00;;
6077;SDS011;3067;49.470;10.394;2023-03-21T15:18:53;3.83;;;2.87;;
6077;SDS011;3067;49.470;10.394;2023-03-21T15:21:22;3.07;;;2.87;;
6077;SDS011;3067;49.470;10.394;2023-03-21T15:23:51;2.93;;;2.73;;
6077;SDS011;3067;49.470;10.394;2023-03-21T15:26:20;3.10;;;2.90;;
6077;SDS011;3067;49.470;10.394;2023-03-21T15:28:50;4.70;;;3.00;;